createdAt,value
2019-02-09T00:01:29.720Z,5.70
2019-02-09T00:03:58.900Z,7.67
2019-02-09T00:06:28.012Z,6.87
2019-02-09T00:08:57.451Z,6.30
2019-02-09T00:11:27.056Z,5.00
2019-02-09T00:13:56.332Z,5.87
2019-02-09T00:16:25.439Z,5.93
2019-02-09T00:18:54.600Z,5.80
2019-02-09T00:21:23.772Z,5.60
2019-02-09T00:23:52.853Z,7.73
2019-02-09T00:26:21.924Z,9.60
2019-02-09T00:28:51.155Z,6.83
2019-02-09T00:31:20.262Z,10.93
2019-02-09T00:33:49.338Z,10.00
2019-02-09T00:36:18.745Z,9.20
2019-02-09T00:38:47.890Z,7.57
2019-02-09T00:41:17.125Z,9.83
2019-02-09T00:43:46.243Z,5.93
2019-02-09T00:46:15.417Z,12.00
2019-02-09T00:48:44.796Z,8.97
2019-02-09T00:51:13.872Z,6.50
2019-02-09T00:53:43.056Z,11.37
2019-02-09T00:56:12.536Z,6.57
2019-02-09T00:58:41.987Z,7.50
2019-02-09T01:01:11.508Z,13.30
2019-02-09T01:03:41.940Z,4.43
2019-02-09T01:06:11.567Z,6.20
2019-02-09T01:08:42.000Z,9.53
2019-02-09T01:11:12.152Z,8.43
2019-02-09T01:13:41.423Z,7.90
2019-02-09T01:16:11.421Z,6.60
2019-02-09T01:18:40.541Z,8.30
2019-02-09T01:21:10.089Z,4.00
2019-02-09T01:23:39.180Z,11.57
2019-02-09T01:26:08.285Z,4.80
2019-02-09T01:28:37.386Z,4.53
2019-02-09T01:31:07.003Z,8.40
2019-02-09T01:33:36.051Z,6.77
2019-02-09T01:36:05.325Z,8.47
2019-02-09T01:38:34.440Z,5.07
2019-02-09T01:41:03.560Z,3.97
2019-02-09T01:43:32.935Z,2.63
2019-02-09T01:46:03.354Z,4.13
2019-02-09T01:48:32.489Z,2.47
2019-02-09T01:51:01.532Z,2.67
2019-02-09T01:53:31.188Z,3.83
2019-02-09T01:56:00.276Z,6.20
2019-02-09T01:58:29.420Z,4.77
2019-02-09T02:00:58.818Z,3.93
2019-02-09T02:03:28.052Z,2.20
2019-02-09T02:05:58.101Z,4.33
2019-02-09T02:08:27.169Z,2.83
2019-02-09T02:10:56.386Z,3.13
2019-02-09T02:13:25.623Z,2.57
2019-02-09T02:15:54.660Z,1.83
2019-02-09T02:18:25.644Z,7.57
2019-02-09T02:20:55.020Z,3.57
2019-02-09T02:23:25.736Z,3.43
2019-02-09T02:25:54.942Z,4.27
2019-02-09T02:28:24.471Z,4.23
2019-02-09T02:30:53.638Z,3.70
2019-02-09T02:33:23.095Z,3.53
2019-02-09T02:35:52.182Z,3.53
2019-02-09T02:38:21.911Z,4.07
2019-02-09T02:40:51.380Z,2.87
2019-02-09T02:43:20.552Z,5.03
2019-02-09T02:45:49.814Z,1.60
2019-02-09T02:48:18.872Z,3.00
2019-02-09T02:50:48.372Z,1.90
2019-02-09T02:53:17.532Z,3.17
2019-02-09T02:55:46.615Z,2.20
2019-02-09T02:58:15.949Z,6.27
2019-02-09T03:00:45.156Z,7.33
2019-02-09T03:03:14.984Z,3.17
2019-02-09T03:05:45.106Z,5.17
2019-02-09T03:08:15.158Z,5.53
2019-02-09T03:10:45.547Z,3.93
2019-02-09T03:13:15.327Z,3.50
2019-02-09T03:15:44.764Z,4.90
2019-02-09T03:18:13.968Z,1.35
2019-02-09T03:20:43.040Z,4.27
2019-02-09T03:23:12.420Z,2.50
2019-02-09T03:25:41.874Z,3.97
2019-02-09T03:28:11.076Z,5.90
2019-02-09T03:30:47.706Z,3.17
2019-02-09T03:33:11.377Z,6.50
2019-02-09T03:35:40.648Z,4.47
2019-02-09T03:38:10.096Z,4.70
2019-02-09T03:40:39.207Z,8.03
2019-02-09T03:43:08.608Z,5.80
2019-02-09T03:45:38.108Z,5.13
2019-02-09T03:48:07.354Z,6.40
2019-02-09T03:50:36.812Z,6.67
2019-02-09T03:53:06.441Z,9.30
2019-02-09T03:55:35.775Z,7.50
2019-02-09T03:58:04.864Z,6.93
2019-02-09T04:00:34.436Z,9.07
2019-02-09T04:03:04.275Z,5.97
2019-02-09T04:05:33.572Z,10.50
2019-02-09T04:08:02.776Z,9.63
2019-02-09T04:10:31.841Z,8.30
2019-02-09T04:13:00.964Z,6.30
2019-02-09T04:15:30.359Z,4.60
2019-02-09T04:18:00.288Z,6.13
2019-02-09T04:20:29.467Z,6.17
2019-02-09T04:22:58.603Z,3.53
2019-02-09T04:25:28.007Z,9.07
2019-02-09T04:27:57.107Z,5.00
2019-02-09T04:30:27.897Z,4.77
2019-02-09T04:32:57.312Z,5.80
2019-02-09T04:35:26.385Z,6.63
2019-02-09T04:37:55.832Z,5.83
2019-02-09T04:40:27.140Z,7.73
2019-02-09T04:42:56.791Z,9.83
2019-02-09T04:45:26.264Z,9.53
2019-02-09T04:47:56.477Z,5.87
2019-02-09T04:50:25.929Z,12.33
2019-02-09T04:52:55.609Z,3.97
2019-02-09T04:55:25.766Z,5.67
2019-02-09T04:57:55.478Z,9.10
2019-02-09T05:00:26.358Z,8.43
2019-02-09T05:02:55.555Z,8.37
2019-02-09T05:05:25.072Z,6.90
2019-02-09T05:07:54.389Z,13.23
2019-02-09T05:10:23.738Z,2.87
2019-02-09T05:12:53.150Z,8.03
2019-02-09T05:15:22.629Z,10.60
2019-02-09T05:17:52.001Z,3.07
2019-02-09T05:20:24.494Z,11.60
2019-02-09T05:22:53.299Z,5.63
2019-02-09T05:25:22.372Z,11.93
2019-02-09T05:27:51.704Z,10.20
2019-02-09T05:30:23.071Z,13.07
2019-02-09T05:32:52.391Z,9.47
2019-02-09T05:35:21.865Z,9.80
2019-02-09T05:37:51.399Z,13.77
2019-02-09T05:40:21.156Z,10.70
2019-02-09T05:42:50.691Z,12.57
2019-02-09T05:45:24.803Z,10.10
2019-02-09T05:47:54.012Z,9.60
2019-02-09T05:50:23.546Z,7.07
2019-02-09T05:52:52.712Z,8.70
2019-02-09T05:55:22.226Z,5.13
2019-02-09T05:57:51.440Z,13.47
2019-02-09T06:00:27.118Z,6.10
2019-02-09T06:02:56.208Z,9.23
2019-02-09T06:05:25.684Z,8.47
2019-02-09T06:07:54.825Z,11.57
2019-02-09T06:10:24.263Z,8.23
2019-02-09T06:12:53.809Z,9.87
2019-02-09T06:15:23.140Z,12.70
2019-02-09T06:17:52.218Z,8.97
2019-02-09T06:20:23.564Z,8.00
2019-02-09T06:22:53.888Z,7.47
2019-02-09T06:25:23.048Z,7.80
2019-02-09T06:27:52.149Z,10.23
2019-02-09T06:30:23.308Z,16.83
2019-02-09T06:32:52.609Z,10.20
2019-02-09T06:35:23.076Z,11.50
2019-02-09T06:37:52.359Z,9.20
2019-02-09T06:40:21.916Z,14.90
2019-02-09T06:42:51.596Z,9.00
2019-02-09T06:45:22.172Z,17.73
2019-02-09T06:47:51.304Z,10.17
2019-02-09T06:50:30.363Z,15.03
2019-02-09T06:52:59.812Z,8.30
2019-02-09T06:55:28.894Z,11.73
2019-02-09T06:57:58.022Z,9.60
2019-02-09T07:00:27.605Z,10.53
2019-02-09T07:02:56.759Z,12.43
2019-02-09T07:05:26.148Z,13.23
2019-02-09T07:07:55.276Z,16.20
2019-02-09T07:10:24.978Z,16.23
2019-02-09T07:12:54.309Z,15.90
2019-02-09T07:15:25.341Z,14.50
2019-02-09T07:17:54.694Z,21.23
2019-02-09T07:20:24.300Z,12.07
2019-02-09T07:22:53.500Z,10.80
2019-02-09T07:25:23.512Z,13.67
2019-02-09T07:27:53.753Z,22.87
2019-02-09T07:30:24.744Z,6.97
2019-02-09T07:32:54.364Z,10.97
2019-02-09T07:35:23.480Z,18.50
2019-02-09T07:37:52.624Z,12.87
2019-02-09T07:40:22.696Z,9.27
2019-02-09T07:42:51.851Z,11.47
2019-02-09T07:45:23.056Z,10.57
2019-02-09T07:47:52.173Z,11.77
2019-02-09T07:50:22.700Z,9.53
2019-02-09T07:52:53.708Z,12.13
2019-02-09T07:55:22.981Z,10.73
2019-02-09T07:57:52.150Z,10.37
2019-02-09T08:00:24.033Z,11.13
2019-02-09T08:02:53.470Z,10.57
2019-02-09T08:05:24.010Z,11.73
2019-02-09T08:07:53.216Z,14.00
2019-02-09T08:10:25.572Z,21.40
2019-02-09T08:12:54.871Z,12.10
2019-02-09T08:15:25.548Z,9.80
2019-02-09T08:17:54.731Z,12.80
2019-02-09T08:20:25.529Z,24.90
2019-02-09T08:22:55.633Z,9.43
2019-02-09T08:25:26.281Z,13.67
2019-02-09T08:27:55.582Z,16.40
2019-02-09T08:30:27.372Z,11.18
2019-02-09T08:32:56.756Z,14.90
2019-02-09T08:35:25.884Z,15.43
2019-02-09T08:37:55.216Z,9.20
2019-02-09T08:40:24.408Z,12.27
2019-02-09T08:42:53.914Z,13.73
2019-02-09T08:45:23.172Z,17.33
2019-02-09T08:47:52.852Z,15.20
2019-02-09T08:50:27.392Z,10.40
2019-02-09T08:52:56.799Z,15.63
2019-02-09T08:55:25.974Z,14.13
2019-02-09T08:57:55.384Z,16.67
2019-02-09T09:00:26.632Z,12.00
2019-02-09T09:02:56.052Z,13.93
2019-02-09T09:05:25.443Z,14.13
2019-02-09T09:07:54.608Z,14.10
2019-02-09T09:10:24.769Z,15.13
2019-02-09T09:12:54.540Z,16.53
2019-02-09T09:15:26.260Z,9.37
2019-02-09T09:17:55.368Z,12.43
2019-02-09T09:20:27.410Z,7.67
2019-02-09T09:22:57.270Z,14.50
2019-02-09T09:25:31.524Z,15.23
2019-02-09T09:28:02.497Z,12.97
2019-02-09T09:30:31.834Z,19.77
2019-02-09T09:33:01.300Z,15.97
2019-02-09T09:35:31.176Z,12.23
2019-02-09T09:38:01.572Z,16.47
2019-02-09T09:40:33.112Z,16.00
2019-02-09T09:43:02.640Z,16.80
2019-02-09T09:45:33.379Z,12.87
2019-02-09T09:48:02.968Z,17.73
2019-02-09T09:50:32.172Z,11.50
2019-02-09T09:53:01.457Z,16.17
2019-02-09T09:55:30.992Z,15.32
2019-02-09T09:58:00.195Z,14.53
2019-02-09T10:00:30.432Z,13.37
2019-02-09T10:02:59.695Z,15.50
2019-02-09T10:05:29.238Z,13.30
2019-02-09T10:07:59.855Z,13.03
2019-02-09T10:10:30.009Z,15.13
2019-02-09T10:12:59.113Z,18.50
2019-02-09T10:15:28.672Z,11.13
2019-02-09T10:17:57.808Z,15.47
2019-02-09T10:20:27.236Z,20.57
2019-02-09T10:22:57.879Z,16.00
2019-02-09T10:25:27.137Z,17.77
2019-02-09T10:27:57.340Z,17.40
2019-02-09T10:30:27.787Z,21.67
2019-02-09T10:32:57.595Z,16.50
2019-02-09T10:35:27.220Z,17.50
2019-02-09T10:37:57.236Z,15.93
2019-02-09T10:40:28.184Z,7.20
2019-02-09T10:42:58.226Z,14.00
2019-02-09T10:45:28.261Z,17.77
2019-02-09T10:47:57.955Z,12.93
2019-02-09T10:50:41.706Z,14.23
2019-02-09T10:53:10.897Z,10.73
2019-02-09T10:55:40.940Z,19.53
2019-02-09T10:58:10.748Z,12.70
2019-02-09T11:00:48.281Z,15.60
2019-02-09T11:03:17.920Z,14.47
2019-02-09T11:05:47.230Z,13.27
2019-02-09T11:08:16.400Z,19.27
2019-02-09T11:10:47.124Z,12.20
2019-02-09T11:13:16.440Z,20.70
2019-02-09T11:15:45.816Z,24.50
2019-02-09T11:18:14.881Z,23.80
2019-02-09T11:20:44.320Z,16.47
2019-02-09T11:23:13.425Z,21.63
2019-02-09T11:25:42.608Z,17.13
2019-02-09T11:28:12.135Z,12.07
2019-02-09T11:30:41.836Z,19.63
2019-02-09T11:33:12.115Z,12.63
2019-02-09T11:35:41.334Z,19.30
2019-02-09T11:38:10.463Z,17.73
2019-02-09T11:40:39.559Z,12.03
2019-02-09T11:43:08.700Z,8.60
2019-02-09T11:45:38.376Z,15.03
2019-02-09T11:48:07.874Z,18.30
2019-02-09T11:50:37.028Z,16.07
2019-02-09T11:53:06.936Z,22.87
2019-02-09T11:55:36.026Z,14.57
2019-02-09T11:58:05.256Z,21.03
2019-02-09T12:00:37.035Z,19.07
2019-02-09T12:03:14.588Z,12.30
2019-02-09T12:05:37.642Z,14.40
2019-02-09T12:08:07.036Z,10.47
2019-02-09T12:10:37.168Z,11.93
2019-02-09T12:13:07.336Z,16.10
2019-02-09T12:15:38.362Z,13.17
2019-02-09T12:18:08.277Z,15.77
2019-02-09T12:20:37.408Z,16.87
2019-02-09T12:23:06.788Z,14.50
2019-02-09T12:25:36.383Z,22.60
2019-02-09T12:28:07.550Z,11.17
2019-02-09T12:30:37.539Z,11.13
2019-02-09T12:33:08.122Z,13.67
2019-02-09T12:35:37.657Z,13.93
2019-02-09T12:38:07.764Z,13.13
2019-02-09T12:40:37.485Z,12.13
2019-02-09T12:43:07.105Z,12.60
2019-02-09T12:45:36.900Z,21.93
2019-02-09T12:48:07.362Z,16.80
2019-02-09T12:50:36.808Z,17.53
2019-02-09T12:53:06.739Z,23.57
2019-02-09T12:55:36.250Z,17.03
2019-02-09T12:58:05.814Z,15.03
2019-02-09T13:00:35.830Z,13.50
2019-02-09T13:03:12.671Z,16.27
2019-02-09T13:05:41.854Z,9.70
2019-02-09T13:08:14.406Z,12.13
2019-02-09T13:10:43.928Z,12.97
2019-02-09T13:13:13.080Z,18.00
2019-02-09T13:15:42.529Z,16.47
2019-02-09T13:18:11.684Z,17.63
2019-02-09T13:20:40.855Z,16.20
2019-02-09T13:23:11.664Z,16.70
2019-02-09T13:25:41.086Z,16.83
2019-02-09T13:28:10.661Z,17.83
2019-02-09T13:30:40.108Z,17.13
2019-02-09T13:33:09.874Z,20.83
2019-02-09T13:35:38.934Z,17.70
2019-02-09T13:38:08.087Z,17.20
2019-02-09T13:40:39.913Z,15.57
2019-02-09T13:43:09.105Z,13.97
2019-02-09T13:45:50.020Z,13.63
2019-02-09T13:48:19.180Z,11.17
2019-02-09T13:50:48.472Z,16.67
2019-02-09T13:53:17.888Z,6.70
2019-02-09T13:55:47.226Z,13.37
2019-02-09T13:58:16.415Z,17.37
2019-02-09T14:00:45.884Z,15.70
2019-02-09T14:03:15.024Z,18.00
2019-02-09T14:05:44.424Z,14.80
2019-02-09T14:08:13.839Z,11.17
2019-02-09T14:10:43.324Z,13.17
2019-02-09T14:13:14.550Z,11.90
2019-02-09T14:15:45.432Z,12.73
2019-02-09T14:18:14.598Z,14.00
2019-02-09T14:20:43.784Z,7.97
2019-02-09T14:23:13.224Z,8.73
2019-02-09T14:25:42.399Z,20.93
2019-02-09T14:28:11.840Z,18.05
2019-02-09T14:30:41.199Z,13.90
2019-02-09T14:33:10.717Z,15.90
2019-02-09T14:35:41.410Z,10.10
2019-02-09T14:38:10.724Z,17.30
2019-02-09T14:40:40.463Z,7.43
2019-02-09T14:43:10.478Z,17.53
2019-02-09T14:45:41.904Z,13.30
2019-02-09T14:48:11.128Z,17.33
2019-02-09T14:50:40.272Z,12.97
2019-02-09T14:53:10.298Z,16.17
2019-02-09T14:55:41.707Z,13.05
2019-02-09T14:58:11.052Z,12.90
2019-02-09T15:00:45.619Z,19.17
2019-02-09T15:03:15.032Z,10.33
2019-02-09T15:05:44.309Z,11.70
2019-02-09T15:08:18.787Z,15.40
2019-02-09T15:10:48.312Z,20.87
2019-02-09T15:13:17.672Z,18.57
2019-02-09T15:15:53.883Z,15.30
2019-02-09T15:18:25.791Z,20.47
2019-02-09T15:20:57.593Z,14.07
2019-02-09T15:23:26.772Z,20.33
2019-02-09T15:25:55.883Z,14.80
2019-02-09T15:28:25.106Z,14.00
2019-02-09T15:30:54.193Z,15.40
2019-02-09T15:33:23.262Z,19.27
2019-02-09T15:35:53.273Z,12.77
2019-02-09T15:38:22.406Z,14.83
2019-02-09T15:40:51.716Z,19.57
2019-02-09T15:43:21.073Z,15.60
2019-02-09T15:45:50.468Z,13.37
2019-02-09T15:48:19.660Z,10.33
2019-02-09T15:50:48.804Z,16.50
2019-02-09T15:53:18.136Z,20.20
2019-02-09T15:55:47.468Z,14.00
2019-02-09T15:58:16.620Z,13.30
2019-02-09T16:00:45.713Z,13.30
2019-02-09T16:03:14.973Z,14.10
2019-02-09T16:05:44.303Z,16.23
2019-02-09T16:08:13.359Z,16.57
2019-02-09T16:10:42.418Z,17.13
2019-02-09T16:13:12.176Z,17.92
2019-02-09T16:15:42.172Z,19.67
2019-02-09T16:18:11.322Z,16.53
2019-02-09T16:20:42.060Z,12.43
2019-02-09T16:23:11.319Z,17.13
2019-02-09T16:25:40.624Z,16.23
2019-02-09T16:28:09.808Z,10.47
2019-02-09T16:30:38.919Z,12.07
2019-02-09T16:33:08.394Z,13.87
2019-02-09T16:35:37.506Z,9.97
2019-02-09T16:38:06.622Z,10.80
2019-02-09T16:40:35.837Z,16.77
2019-02-09T16:43:05.954Z,11.43
2019-02-09T16:45:35.583Z,12.70
2019-02-09T16:48:06.457Z,12.63
2019-02-09T16:50:35.976Z,11.33
2019-02-09T16:53:05.544Z,12.97
2019-02-09T16:55:37.135Z,19.27
2019-02-09T16:58:06.757Z,13.47
2019-02-09T17:00:40.989Z,17.30
2019-02-09T17:03:11.380Z,12.53
2019-02-09T17:05:40.964Z,12.80
2019-02-09T17:08:10.251Z,15.90
2019-02-09T17:10:39.783Z,17.17
2019-02-09T17:13:08.876Z,14.00
2019-02-09T17:15:38.092Z,10.37
2019-02-09T17:18:08.024Z,10.73
2019-02-09T17:20:37.608Z,16.20
2019-02-09T17:23:07.447Z,13.53
2019-02-09T17:25:36.564Z,14.13
2019-02-09T17:28:06.489Z,21.97
2019-02-09T17:30:36.257Z,11.87
2019-02-09T17:33:05.601Z,14.70
2019-02-09T17:35:34.772Z,15.10
2019-02-09T17:38:04.445Z,10.43
2019-02-09T17:40:44.273Z,13.23
2019-02-09T17:43:13.568Z,12.60
2019-02-09T17:45:45.792Z,14.13
2019-02-09T17:48:15.164Z,13.97
2019-02-09T17:50:44.243Z,20.10
2019-02-09T17:53:13.348Z,10.17
2019-02-09T17:55:42.675Z,13.57
2019-02-09T17:58:12.054Z,18.37
2019-02-09T18:00:48.456Z,13.30
2019-02-09T18:03:18.240Z,11.13
2019-02-09T18:05:47.649Z,10.53
2019-02-09T18:08:16.809Z,8.50
2019-02-09T18:10:46.012Z,17.60
2019-02-09T18:13:15.168Z,10.33
2019-02-09T18:15:44.652Z,15.53
2019-02-09T18:18:13.864Z,7.97
2019-02-09T18:20:43.144Z,13.30
2019-02-09T18:23:12.299Z,13.73
2019-02-09T18:25:41.413Z,12.40
2019-02-09T18:28:10.508Z,16.23
2019-02-09T18:30:39.796Z,11.60
2019-02-09T18:33:08.899Z,9.50
2019-02-09T18:35:57.107Z,11.60
2019-02-09T18:38:26.392Z,12.75
2019-02-09T18:40:55.474Z,17.80
2019-02-09T18:43:24.684Z,23.10
2019-02-09T18:45:57.890Z,14.93
2019-02-09T18:48:25.553Z,17.73
2019-02-09T18:50:54.951Z,17.73
2019-02-09T18:53:24.018Z,21.80
2019-02-09T18:55:53.371Z,18.80
2019-02-09T18:58:23.133Z,18.20
2019-02-09T19:00:53.470Z,17.17
2019-02-09T19:03:23.357Z,19.23
2019-02-09T19:05:53.728Z,17.67
2019-02-09T19:08:23.443Z,14.43
2019-02-09T19:10:54.236Z,16.37
2019-02-09T19:13:23.947Z,14.55
2019-02-09T19:15:54.596Z,11.35
2019-02-09T19:18:23.710Z,15.03
2019-02-09T19:20:56.695Z,19.47
2019-02-09T19:23:26.038Z,21.93
2019-02-09T19:25:55.106Z,19.03
2019-02-09T19:28:24.580Z,22.67
2019-02-09T19:30:54.527Z,20.00
2019-02-09T19:33:23.658Z,12.97
2019-02-09T19:35:52.796Z,14.90
2019-02-09T19:38:25.071Z,13.60
2019-02-09T19:40:55.199Z,12.17
2019-02-09T19:43:25.878Z,10.43
2019-02-09T19:45:55.521Z,13.45
2019-02-09T19:48:25.620Z,9.90
2019-02-09T19:50:54.613Z,11.87
2019-02-09T19:53:24.024Z,11.47
2019-02-09T19:55:53.395Z,8.53
2019-02-09T19:58:23.834Z,7.47
2019-02-09T20:00:53.327Z,11.50
2019-02-09T20:03:22.420Z,14.47
2019-02-09T20:05:51.918Z,8.53
2019-02-09T20:08:21.200Z,22.93
2019-02-09T20:10:50.570Z,12.57
2019-02-09T20:13:19.977Z,7.67
2019-02-09T20:15:50.292Z,12.03
2019-02-09T20:18:20.105Z,14.40
2019-02-09T20:20:50.768Z,13.15
2019-02-09T20:23:20.252Z,15.53
2019-02-09T20:25:50.274Z,16.33
2019-02-09T20:28:19.515Z,14.17
2019-02-09T20:30:49.004Z,17.87
2019-02-09T20:33:18.074Z,11.57
2019-02-09T20:35:47.176Z,20.63
2019-02-09T20:38:16.457Z,18.33
2019-02-09T20:40:48.332Z,21.37
2019-02-09T20:43:18.935Z,19.40
2019-02-09T20:45:48.483Z,25.17
2019-02-09T20:48:18.520Z,16.83
2019-02-09T20:50:47.680Z,18.40
2019-02-09T20:53:17.192Z,12.33
2019-02-09T20:55:46.516Z,14.80
2019-02-09T20:58:16.044Z,14.03
2019-02-09T21:00:45.537Z,15.80
2019-02-09T21:03:14.708Z,12.90
2019-02-09T21:05:43.890Z,17.17
2019-02-09T21:08:13.320Z,15.67
2019-02-09T21:10:42.424Z,23.40
2019-02-09T21:13:11.616Z,18.27
2019-02-09T21:15:40.748Z,13.33
2019-02-09T21:18:10.564Z,13.00
2019-02-09T21:20:39.853Z,12.53
2019-02-09T21:23:09.264Z,11.20
2019-02-09T21:25:40.313Z,14.90
2019-02-09T21:28:09.449Z,18.60
2019-02-09T21:30:38.609Z,24.10
2019-02-09T21:33:07.849Z,12.13
2019-02-09T21:35:43.738Z,15.78
2019-02-09T21:38:08.776Z,15.10
2019-02-09T21:40:38.256Z,14.90
2019-02-09T21:43:08.429Z,18.03
2019-02-09T21:45:44.818Z,15.23
2019-02-09T21:48:09.488Z,19.10
2019-02-09T21:50:39.039Z,15.30
2019-02-09T21:53:08.657Z,21.77
2019-02-09T21:55:38.432Z,14.60
2019-02-09T21:58:08.148Z,13.97
2019-02-09T22:00:39.336Z,15.37
2019-02-09T22:03:10.341Z,15.10
2019-02-09T22:05:39.829Z,16.33
2019-02-09T22:08:18.999Z,16.97
2019-02-09T22:10:43.455Z,12.67
2019-02-09T22:13:13.780Z,14.38
2019-02-09T22:15:44.009Z,15.83
2019-02-09T22:18:13.266Z,9.83
2019-02-09T22:20:42.871Z,24.30
2019-02-09T22:23:12.101Z,17.70
2019-02-09T22:25:41.245Z,15.17
2019-02-09T22:28:10.740Z,20.10
2019-02-09T22:30:39.934Z,18.57
2019-02-09T22:33:09.166Z,14.60
2019-02-09T22:35:38.364Z,13.23
2019-02-09T22:38:07.696Z,18.90
2019-02-09T22:40:37.424Z,20.73
2019-02-09T22:43:07.864Z,17.70
2019-02-09T22:45:38.361Z,14.13
2019-02-09T22:48:08.826Z,16.80
2019-02-09T22:50:43.436Z,17.73
2019-02-09T22:53:12.541Z,19.83
2019-02-09T22:55:41.663Z,16.60
2019-02-09T22:58:11.731Z,20.27
2019-02-09T23:01:08.652Z,16.37
2019-02-09T23:04:23.305Z,20.90
2019-02-09T23:07:22.757Z,22.87
2019-02-09T23:09:52.308Z,14.50
2019-02-09T23:12:22.316Z,18.45
2019-02-09T23:14:52.467Z,19.07
2019-02-09T23:17:22.546Z,23.83
2019-02-09T23:19:52.603Z,15.10
2019-02-09T23:22:23.394Z,23.17
2019-02-09T23:24:52.804Z,18.15
2019-02-09T23:27:22.904Z,19.48
2019-02-09T23:29:53.457Z,15.87
2019-02-09T23:32:23.259Z,14.70
2019-02-09T23:34:53.134Z,25.75
2019-02-09T23:37:23.727Z,13.15
2019-02-09T23:39:53.593Z,14.83
2019-02-09T23:42:23.242Z,17.92
2019-02-09T23:44:53.597Z,21.10
2019-02-09T23:47:23.509Z,20.08
2019-02-09T23:49:54.573Z,21.30
2019-02-09T23:52:23.851Z,19.33
2019-02-09T23:54:54.004Z,25.75
2019-02-09T23:57:23.656Z,19.23
2019-02-09T23:59:53.671Z,22.07
